sensor_id;sensor_type;location;lat;lon;timestamp;temperature;humidity
19536;HTU21D;9913;51.168;4.124;2023-08-21T00:00:33;19.60;92.91
19536;HTU21D;9913;51.168;4.124;2023-08-21T00:03:02;19.62;93.04
19536;HTU21D;9913;51.168;4.124;2023-08-21T00:05:30;19.51;92.09
19536;HTU21D;9913;51.168;4.124;2023-08-21T00:07:59;19.54;92.27
19536;HTU21D;9913;51.168;4.124;2023-08-21T00:10:27;19.57;92.76
19536;HTU21D;9913;51.168;4.124;2023-08-21T00:12:57;19.52;93.09
19536;HTU21D;9913;51.168;4.124;2023-08-21T00:15:25;19.56;93.33
19536;HTU21D;9913;51.168;4.124;2023-08-21T00:17:53;19.55;92.91
19536;HTU21D;9913;51.168;4.124;2023-08-21T00:20:22;19.54;93.19
19536;HTU21D;9913;51.168;4.124;2023-08-21T00:22:50;19.53;93.71
19536;HTU21D;9913;51.168;4.124;2023-08-21T00:25:20;19.56;93.39
19536;HTU21D;9913;51.168;4.124;2023-08-21T00:27:49;19.53;92.97
19536;HTU21D;9913;51.168;4.124;2023-08-21T00:30:18;19.53;92.96
19536;HTU21D;9913;51.168;4.124;2023-08-21T00:32:47;19.46;92.77
19536;HTU21D;9913;51.168;4.124;2023-08-21T00:35:15;19.50;93.67
19536;HTU21D;9913;51.168;4.124;2023-08-21T00:37:43;19.48;93.65
19536;HTU21D;9913;51.168;4.124;2023-08-21T00:40:12;19.46;93.49
19536;HTU21D;9913;51.168;4.124;2023-08-21T00:42:41;19.37;92.87
19536;HTU21D;9913;51.168;4.124;2023-08-21T00:45:09;19.38;93.31
19536;HTU21D;9913;51.168;4.124;2023-08-21T00:47:41;19.25;93.79
19536;HTU21D;9913;51.168;4.124;2023-08-21T00:50:10;19.22;93.30
19536;HTU21D;9913;51.168;4.124;2023-08-21T00:52:40;19.20;92.85
19536;HTU21D;9913;51.168;4.124;2023-08-21T00:55:09;19.06;93.37
19536;HTU21D;9913;51.168;4.124;2023-08-21T00:57:38;18.91;94.22
19536;HTU21D;9913;51.168;4.124;2023-08-21T01:00:08;18.89;94.30
19536;HTU21D;9913;51.168;4.124;2023-08-21T01:02:38;18.92;93.88
19536;HTU21D;9913;51.168;4.124;2023-08-21T01:05:12;18.88;93.95
19536;HTU21D;9913;51.168;4.124;2023-08-21T01:07:47;18.92;94.52
19536;HTU21D;9913;51.168;4.124;2023-08-21T01:10:22;18.89;94.98
19536;HTU21D;9913;51.168;4.124;2023-08-21T01:12:56;18.92;95.02
19536;HTU21D;9913;51.168;4.124;2023-08-21T01:15:29;18.92;95.09
19536;HTU21D;9913;51.168;4.124;2023-08-21T01:18:01;19.03;94.54
19536;HTU21D;9913;51.168;4.124;2023-08-21T01:20:31;19.12;94.39
19536;HTU21D;9913;51.168;4.124;2023-08-21T01:23:04;19.24;94.68
19536;HTU21D;9913;51.168;4.124;2023-08-21T01:25:34;19.07;94.59
19536;HTU21D;9913;51.168;4.124;2023-08-21T01:28:05;19.07;93.85
19536;HTU21D;9913;51.168;4.124;2023-08-21T01:30:35;19.14;94.40
19536;HTU21D;9913;51.168;4.124;2023-08-21T01:33:06;19.08;94.54
19536;HTU21D;9913;51.168;4.124;2023-08-21T01:35:38;19.10;94.57
19536;HTU21D;9913;51.168;4.124;2023-08-21T01:38:06;19.10;93.90
19536;HTU21D;9913;51.168;4.124;2023-08-21T01:40:36;19.14;94.45
19536;HTU21D;9913;51.168;4.124;2023-08-21T01:43:05;19.02;94.20
19536;HTU21D;9913;51.168;4.124;2023-08-21T01:45:33;19.00;94.46
19536;HTU21D;9913;51.168;4.124;2023-08-21T01:48:01;19.01;94.74
19536;HTU21D;9913;51.168;4.124;2023-08-21T01:50:30;19.07;94.32
19536;HTU21D;9913;51.168;4.124;2023-08-21T01:52:59;19.06;93.96
19536;HTU21D;9913;51.168;4.124;2023-08-21T01:55:27;19.08;94.20
19536;HTU21D;9913;51.168;4.124;2023-08-21T01:57:56;18.91;94.43
19536;HTU21D;9913;51.168;4.124;2023-08-21T02:00:25;18.87;94.88
19536;HTU21D;9913;51.168;4.124;2023-08-21T02:02:54;18.76;94.85
19536;HTU21D;9913;51.168;4.124;2023-08-21T02:05:22;18.67;94.92
19536;HTU21D;9913;51.168;4.124;2023-08-21T02:07:51;18.68;94.90
19536;HTU21D;9913;51.168;4.124;2023-08-21T02:10:19;18.64;94.72
19536;HTU21D;9913;51.168;4.124;2023-08-21T02:12:49;18.71;94.52
19536;HTU21D;9913;51.168;4.124;2023-08-21T02:15:20;18.70;94.14
19536;HTU21D;9913;51.168;4.124;2023-08-21T02:17:50;18.56;94.83
19536;HTU21D;9913;51.168;4.124;2023-08-21T02:20:19;18.41;95.03
19536;HTU21D;9913;51.168;4.124;2023-08-21T02:22:47;18.39;95.44
19536;HTU21D;9913;51.168;4.124;2023-08-21T02:25:15;18.37;95.36
19536;HTU21D;9913;51.168;4.124;2023-08-21T02:27:44;18.39;94.99
19536;HTU21D;9913;51.168;4.124;2023-08-21T02:30:12;18.29;95.02
19536;HTU21D;9913;51.168;4.124;2023-08-21T02:32:42;18.21;95.70
19536;HTU21D;9913;51.168;4.124;2023-08-21T02:35:13;18.21;95.52
19536;HTU21D;9913;51.168;4.124;2023-08-21T02:37:41;18.17;95.88
19536;HTU21D;9913;51.168;4.124;2023-08-21T02:40:09;18.19;95.99
19536;HTU21D;9913;51.168;4.124;2023-08-21T02:42:37;18.14;95.66
19536;HTU21D;9913;51.168;4.124;2023-08-21T02:45:07;18.15;95.67
19536;HTU21D;9913;51.168;4.124;2023-08-21T02:47:37;18.17;95.22
19536;HTU21D;9913;51.168;4.124;2023-08-21T02:50:08;18.03;96.02
19536;HTU21D;9913;51.168;4.124;2023-08-21T02:52:37;18.00;95.80
19536;HTU21D;9913;51.168;4.124;2023-08-21T02:55:07;18.03;95.98
19536;HTU21D;9913;51.168;4.124;2023-08-21T02:57:36;17.97;95.86
19536;HTU21D;9913;51.168;4.124;2023-08-21T03:00:05;17.93;95.99
19536;HTU21D;9913;51.168;4.124;2023-08-21T03:02:34;17.94;95.84
19536;HTU21D;9913;51.168;4.124;2023-08-21T03:05:04;17.92;95.99
19536;HTU21D;9913;51.168;4.124;2023-08-21T03:07:36;17.84;96.20
19536;HTU21D;9913;51.168;4.124;2023-08-21T03:10:05;17.80;96.27
19536;HTU21D;9913;51.168;4.124;2023-08-21T03:12:34;17.65;96.64
19536;HTU21D;9913;51.168;4.124;2023-08-21T03:15:03;17.67;96.65
19536;HTU21D;9913;51.168;4.124;2023-08-21T03:17:32;17.68;96.47
19536;HTU21D;9913;51.168;4.124;2023-08-21T03:20:00;17.73;96.75
19536;HTU21D;9913;51.168;4.124;2023-08-21T03:22:34;17.67;96.54
19536;HTU21D;9913;51.168;4.124;2023-08-21T03:25:06;17.75;96.40
19536;HTU21D;9913;51.168;4.124;2023-08-21T03:27:34;17.68;96.47
19536;HTU21D;9913;51.168;4.124;2023-08-21T03:30:07;17.72;96.19
19536;HTU21D;9913;51.168;4.124;2023-08-21T03:32:37;17.78;95.86
19536;HTU21D;9913;51.168;4.124;2023-08-21T03:35:06;17.77;96.18
19536;HTU21D;9913;51.168;4.124;2023-08-21T03:37:35;17.76;96.26
19536;HTU21D;9913;51.168;4.124;2023-08-21T03:40:08;17.81;95.67
19536;HTU21D;9913;51.168;4.124;2023-08-21T03:42:36;17.77;95.43
19536;HTU21D;9913;51.168;4.124;2023-08-21T03:45:07;17.72;95.58
19536;HTU21D;9913;51.168;4.124;2023-08-21T03:47:35;17.64;96.44
19536;HTU21D;9913;51.168;4.124;2023-08-21T03:50:10;17.74;95.64
19536;HTU21D;9913;51.168;4.124;2023-08-21T03:52:38;17.51;95.91
19536;HTU21D;9913;51.168;4.124;2023-08-21T03:55:09;17.55;96.29
19536;HTU21D;9913;51.168;4.124;2023-08-21T03:57:37;17.43;96.35
19536;HTU21D;9913;51.168;4.124;2023-08-21T04:00:07;17.38;96.52
19536;HTU21D;9913;51.168;4.124;2023-08-21T04:02:42;17.39;96.35
19536;HTU21D;9913;51.168;4.124;2023-08-21T04:05:10;17.26;96.30
19536;HTU21D;9913;51.168;4.124;2023-08-21T04:07:39;17.26;96.18
19536;HTU21D;9913;51.168;4.124;2023-08-21T04:10:09;17.22;96.26
19536;HTU21D;9913;51.168;4.124;2023-08-21T04:12:38;17.25;96.20
19536;HTU21D;9913;51.168;4.124;2023-08-21T04:15:08;17.25;95.97
19536;HTU21D;9913;51.168;4.124;2023-08-21T04:17:37;17.18;96.35
19536;HTU21D;9913;51.168;4.124;2023-08-21T04:20:06;17.08;96.87
19536;HTU21D;9913;51.168;4.124;2023-08-21T04:22:35;17.13;96.39
19536;HTU21D;9913;51.168;4.124;2023-08-21T04:25:04;17.00;96.82
19536;HTU21D;9913;51.168;4.124;2023-08-21T04:27:35;17.03;96.66
19536;HTU21D;9913;51.168;4.124;2023-08-21T04:30:04;17.11;96.29
19536;HTU21D;9913;51.168;4.124;2023-08-21T04:32:32;17.15;96.13
19536;HTU21D;9913;51.168;4.124;2023-08-21T04:35:01;17.16;96.51
19536;HTU21D;9913;51.168;4.124;2023-08-21T04:37:30;17.19;96.42
19536;HTU21D;9913;51.168;4.124;2023-08-21T04:39:59;17.23;97.10
19536;HTU21D;9913;51.168;4.124;2023-08-21T04:42:27;17.22;96.55
19536;HTU21D;9913;51.168;4.124;2023-08-21T04:44:57;17.15;97.09
19536;HTU21D;9913;51.168;4.124;2023-08-21T04:47:27;17.21;96.68
19536;HTU21D;9913;51.168;4.124;2023-08-21T04:49:58;17.21;96.84
19536;HTU21D;9913;51.168;4.124;2023-08-21T04:52:29;17.17;96.07
19536;HTU21D;9913;51.168;4.124;2023-08-21T04:54:59;17.15;96.18
19536;HTU21D;9913;51.168;4.124;2023-08-21T04:57:29;17.17;96.24
19536;HTU21D;9913;51.168;4.124;2023-08-21T04:59:59;17.03;96.66
19536;HTU21D;9913;51.168;4.124;2023-08-21T05:02:34;17.01;96.81
19536;HTU21D;9913;51.168;4.124;2023-08-21T05:05:03;17.01;96.79
19536;HTU21D;9913;51.168;4.124;2023-08-21T05:07:32;16.92;97.32
19536;HTU21D;9913;51.168;4.124;2023-08-21T05:10:02;17.06;97.19
19536;HTU21D;9913;51.168;4.124;2023-08-21T05:12:33;17.06;96.81
19536;HTU21D;9913;51.168;4.124;2023-08-21T05:15:04;16.91;97.28
19536;HTU21D;9913;51.168;4.124;2023-08-21T05:17:33;16.91;97.27
19536;HTU21D;9913;51.168;4.124;2023-08-21T05:20:05;16.94;97.07
19536;HTU21D;9913;51.168;4.124;2023-08-21T05:22:34;16.96;97.44
19536;HTU21D;9913;51.168;4.124;2023-08-21T05:25:03;16.99;97.49
19536;HTU21D;9913;51.168;4.124;2023-08-21T05:27:32;16.96;97.49
19536;HTU21D;9913;51.168;4.124;2023-08-21T05:30:00;17.07;97.48
19536;HTU21D;9913;51.168;4.124;2023-08-21T05:32:31;17.29;96.86
19536;HTU21D;9913;51.168;4.124;2023-08-21T05:34:59;17.26;97.20
19536;HTU21D;9913;51.168;4.124;2023-08-21T05:37:28;17.29;97.33
19536;HTU21D;9913;51.168;4.124;2023-08-21T05:39:57;17.58;97.19
19536;HTU21D;9913;51.168;4.124;2023-08-21T05:42:25;17.55;96.68
19536;HTU21D;9913;51.168;4.124;2023-08-21T05:44:58;17.60;97.38
19536;HTU21D;9913;51.168;4.124;2023-08-21T05:47:43;17.68;97.49
19536;HTU21D;9913;51.168;4.124;2023-08-21T05:50:16;17.76;97.40
19536;HTU21D;9913;51.168;4.124;2023-08-21T05:52:46;17.88;97.13
19536;HTU21D;9913;51.168;4.124;2023-08-21T05:55:17;17.89;96.97
19536;HTU21D;9913;51.168;4.124;2023-08-21T05:57:47;17.85;97.46
19536;HTU21D;9913;51.168;4.124;2023-08-21T06:00:20;18.03;97.61
19536;HTU21D;9913;51.168;4.124;2023-08-21T06:02:50;18.08;97.62
19536;HTU21D;9913;51.168;4.124;2023-08-21T06:05:44;18.09;97.89
19536;HTU21D;9913;51.168;4.124;2023-08-21T06:08:14;18.17;97.26
19536;HTU21D;9913;51.168;4.124;2023-08-21T06:10:42;18.26;97.64
19536;HTU21D;9913;51.168;4.124;2023-08-21T06:13:11;18.12;98.15
19536;HTU21D;9913;51.168;4.124;2023-08-21T06:15:39;18.14;98.26
19536;HTU21D;9913;51.168;4.124;2023-08-21T06:18:09;18.28;97.82
19536;HTU21D;9913;51.168;4.124;2023-08-21T06:20:37;18.39;97.82
19536;HTU21D;9913;51.168;4.124;2023-08-21T06:23:06;18.52;97.45
19536;HTU21D;9913;51.168;4.124;2023-08-21T06:25:34;18.61;97.74
19536;HTU21D;9913;51.168;4.124;2023-08-21T06:28:03;18.53;98.03
19536;HTU21D;9913;51.168;4.124;2023-08-21T06:30:32;18.72;97.83
19536;HTU21D;9913;51.168;4.124;2023-08-21T06:33:00;18.71;97.95
19536;HTU21D;9913;51.168;4.124;2023-08-21T06:35:30;18.85;97.87
19536;HTU21D;9913;51.168;4.124;2023-08-21T06:37:58;18.98;97.76
19536;HTU21D;9913;51.168;4.124;2023-08-21T06:40:26;19.14;97.76
19536;HTU21D;9913;51.168;4.124;2023-08-21T06:42:55;19.20;97.95
19536;HTU21D;9913;51.168;4.124;2023-08-21T06:45:27;19.30;97.67
19536;HTU21D;9913;51.168;4.124;2023-08-21T06:47:58;19.26;97.90
19536;HTU21D;9913;51.168;4.124;2023-08-21T06:50:27;19.21;98.02
19536;HTU21D;9913;51.168;4.124;2023-08-21T06:52:56;19.03;98.26
19536;HTU21D;9913;51.168;4.124;2023-08-21T06:55:24;18.92;98.74
19536;HTU21D;9913;51.168;4.124;2023-08-21T06:57:53;18.81;99.31
19536;HTU21D;9913;51.168;4.124;2023-08-21T07:00:21;19.02;98.60
19536;HTU21D;9913;51.168;4.124;2023-08-21T07:02:50;19.12;98.74
19536;HTU21D;9913;51.168;4.124;2023-08-21T07:05:18;19.22;98.71
19536;HTU21D;9913;51.168;4.124;2023-08-21T07:07:46;19.37;98.45
19536;HTU21D;9913;51.168;4.124;2023-08-21T07:10:16;19.50;98.11
19536;HTU21D;9913;51.168;4.124;2023-08-21T07:12:44;19.53;98.10
19536;HTU21D;9913;51.168;4.124;2023-08-21T07:15:13;19.61;97.80
19536;HTU21D;9913;51.168;4.124;2023-08-21T07:17:42;19.79;97.79
19536;HTU21D;9913;51.168;4.124;2023-08-21T07:20:11;19.83;97.44
19536;HTU21D;9913;51.168;4.124;2023-08-21T07:22:39;19.95;97.67
19536;HTU21D;9913;51.168;4.124;2023-08-21T07:25:08;20.10;97.72
19536;HTU21D;9913;51.168;4.124;2023-08-21T07:27:38;20.33;97.75
19536;HTU21D;9913;51.168;4.124;2023-08-21T07:30:07;20.37;97.36
19536;HTU21D;9913;51.168;4.124;2023-08-21T07:32:35;20.36;97.26
19536;HTU21D;9913;51.168;4.124;2023-08-21T07:35:06;20.24;97.52
19536;HTU21D;9913;51.168;4.124;2023-08-21T07:37:34;20.36;97.59
19536;HTU21D;9913;51.168;4.124;2023-08-21T07:40:04;20.50;97.59
19536;HTU21D;9913;51.168;4.124;2023-08-21T07:42:33;20.63;97.49
19536;HTU21D;9913;51.168;4.124;2023-08-21T07:45:04;20.71;97.43
19536;HTU21D;9913;51.168;4.124;2023-08-21T07:47:33;20.79;97.19
19536;HTU21D;9913;51.168;4.124;2023-08-21T07:50:04;20.86;97.32
19536;HTU21D;9913;51.168;4.124;2023-08-21T07:52:34;20.95;97.01
19536;HTU21D;9913;51.168;4.124;2023-08-21T07:55:04;21.00;97.34
19536;HTU21D;9913;51.168;4.124;2023-08-21T07:57:32;21.07;97.84
19536;HTU21D;9913;51.168;4.124;2023-08-21T08:00:00;21.15;96.01
19536;HTU21D;9913;51.168;4.124;2023-08-21T08:02:40;21.08;96.36
19536;HTU21D;9913;51.168;4.124;2023-08-21T08:05:10;21.01;95.92
19536;HTU21D;9913;51.168;4.124;2023-08-21T08:07:38;21.13;95.96
19536;HTU21D;9913;51.168;4.124;2023-08-21T08:10:07;21.04;95.66
19536;HTU21D;9913;51.168;4.124;2023-08-21T08:12:35;21.15;95.52
19536;HTU21D;9913;51.168;4.124;2023-08-21T08:15:05;21.19;96.28
19536;HTU21D;9913;51.168;4.124;2023-08-21T08:17:34;21.24;95.39
19536;HTU21D;9913;51.168;4.124;2023-08-21T08:20:04;21.46;95.82
19536;HTU21D;9913;51.168;4.124;2023-08-21T08:22:33;21.53;95.59
19536;HTU21D;9913;51.168;4.124;2023-08-21T08:25:03;21.57;95.11
19536;HTU21D;9913;51.168;4.124;2023-08-21T08:27:33;21.60;94.95
19536;HTU21D;9913;51.168;4.124;2023-08-21T08:30:01;21.59;94.70
19536;HTU21D;9913;51.168;4.124;2023-08-21T08:32:31;21.61;94.75
19536;HTU21D;9913;51.168;4.124;2023-08-21T08:35:00;21.79;94.00
19536;HTU21D;9913;51.168;4.124;2023-08-21T08:37:30;21.72;93.79
19536;HTU21D;9913;51.168;4.124;2023-08-21T08:39:59;21.47;94.22
19536;HTU21D;9913;51.168;4.124;2023-08-21T08:42:27;21.43;94.78
19536;HTU21D;9913;51.168;4.124;2023-08-21T08:44:57;21.67;94.36
19536;HTU21D;9913;51.168;4.124;2023-08-21T08:47:32;21.91;94.13
19536;HTU21D;9913;51.168;4.124;2023-08-21T08:50:04;22.11;92.78
19536;HTU21D;9913;51.168;4.124;2023-08-21T08:52:37;22.36;93.46
19536;HTU21D;9913;51.168;4.124;2023-08-21T08:55:07;22.50;93.73
19536;HTU21D;9913;51.168;4.124;2023-08-21T08:57:36;22.32;92.50
19536;HTU21D;9913;51.168;4.124;2023-08-21T09:00:05;22.34;92.89
19536;HTU21D;9913;51.168;4.124;2023-08-21T09:02:34;22.50;92.23
19536;HTU21D;9913;51.168;4.124;2023-08-21T09:05:04;22.60;92.72
19536;HTU21D;9913;51.168;4.124;2023-08-21T09:07:35;22.50;91.18
19536;HTU21D;9913;51.168;4.124;2023-08-21T09:10:04;22.58;91.97
19536;HTU21D;9913;51.168;4.124;2023-08-21T09:12:32;22.51;92.54
19536;HTU21D;9913;51.168;4.124;2023-08-21T09:15:06;22.70;92.15
19536;HTU21D;9913;51.168;4.124;2023-08-21T09:17:35;22.80;91.44
19536;HTU21D;9913;51.168;4.124;2023-08-21T09:20:04;22.91;90.48
19536;HTU21D;9913;51.168;4.124;2023-08-21T09:22:34;23.00;91.24
19536;HTU21D;9913;51.168;4.124;2023-08-21T09:25:05;22.90;88.76
19536;HTU21D;9913;51.168;4.124;2023-08-21T09:27:39;22.90;89.69
19536;HTU21D;9913;51.168;4.124;2023-08-21T09:30:09;22.86;86.93
19536;HTU21D;9913;51.168;4.124;2023-08-21T09:32:52;23.12;87.21
19536;HTU21D;9913;51.168;4.124;2023-08-21T09:35:22;23.22;87.54
19536;HTU21D;9913;51.168;4.124;2023-08-21T09:37:53;23.18;84.95
19536;HTU21D;9913;51.168;4.124;2023-08-21T09:40:22;23.40;85.26
19536;HTU21D;9913;51.168;4.124;2023-08-21T09:42:52;23.32;85.29
19536;HTU21D;9913;51.168;4.124;2023-08-21T09:45:21;23.34;83.21
19536;HTU21D;9913;51.168;4.124;2023-08-21T09:47:51;23.47;82.67
19536;HTU21D;9913;51.168;4.124;2023-08-21T09:50:21;23.61;85.30
19536;HTU21D;9913;51.168;4.124;2023-08-21T09:52:49;23.47;83.50
19536;HTU21D;9913;51.168;4.124;2023-08-21T09:55:39;23.61;85.08
19536;HTU21D;9913;51.168;4.124;2023-08-21T09:58:08;23.60;85.10
19536;HTU21D;9913;51.168;4.124;2023-08-21T10:00:37;23.68;85.66
19536;HTU21D;9913;51.168;4.124;2023-08-21T10:03:07;23.61;82.89
19536;HTU21D;9913;51.168;4.124;2023-08-21T10:05:39;24.01;79.84
19536;HTU21D;9913;51.168;4.124;2023-08-21T10:08:07;23.88;82.49
19536;HTU21D;9913;51.168;4.124;2023-08-21T10:10:39;23.90;81.23
19536;HTU21D;9913;51.168;4.124;2023-08-21T10:13:08;24.09;82.72
19536;HTU21D;9913;51.168;4.124;2023-08-21T10:15:37;24.00;82.75
19536;HTU21D;9913;51.168;4.124;2023-08-21T10:18:21;24.23;82.30
19536;HTU21D;9913;51.168;4.124;2023-08-21T10:20:51;24.34;84.16
19536;HTU21D;9913;51.168;4.124;2023-08-21T10:23:24;24.31;82.68
19536;HTU21D;9913;51.168;4.124;2023-08-21T10:25:59;24.27;81.79
19536;HTU21D;9913;51.168;4.124;2023-08-21T10:28:42;24.38;79.16
19536;HTU21D;9913;51.168;4.124;2023-08-21T10:31:32;24.56;80.04
19536;HTU21D;9913;51.168;4.124;2023-08-21T10:34:03;24.53;79.60
19536;HTU21D;9913;51.168;4.124;2023-08-21T10:37:03;24.66;79.78
19536;HTU21D;9913;51.168;4.124;2023-08-21T10:39:33;24.58;81.62
19536;HTU21D;9913;51.168;4.124;2023-08-21T10:42:07;24.71;82.56
19536;HTU21D;9913;51.168;4.124;2023-08-21T10:44:47;25.05;80.08
19536;HTU21D;9913;51.168;4.124;2023-08-21T10:47:19;25.03;79.34
19536;HTU21D;9913;51.168;4.124;2023-08-21T10:49:51;24.84;83.03
19536;HTU21D;9913;51.168;4.124;2023-08-21T10:52:23;24.91;80.96
19536;HTU21D;9913;51.168;4.124;2023-08-21T10:54:53;25.04;77.85
19536;HTU21D;9913;51.168;4.124;2023-08-21T10:57:24;25.00;79.04
19536;HTU21D;9913;51.168;4.124;2023-08-21T10:59:54;25.16;81.43
19536;HTU21D;9913;51.168;4.124;2023-08-21T11:02:23;25.21;81.02
19536;HTU21D;9913;51.168;4.124;2023-08-21T11:04:52;25.10;79.32
19536;HTU21D;9913;51.168;4.124;2023-08-21T11:07:21;25.03;77.91
19536;HTU21D;9913;51.168;4.124;2023-08-21T11:09:49;25.74;76.18
19536;HTU21D;9913;51.168;4.124;2023-08-21T11:12:18;25.61;81.00
19536;HTU21D;9913;51.168;4.124;2023-08-21T11:14:49;25.50;77.12
19536;HTU21D;9913;51.168;4.124;2023-08-21T11:17:17;25.43;76.94
19536;HTU21D;9913;51.168;4.124;2023-08-21T11:19:46;25.65;81.76
19536;HTU21D;9913;51.168;4.124;2023-08-21T11:22:15;25.88;77.50
19536;HTU21D;9913;51.168;4.124;2023-08-21T11:24:45;25.88;77.72
19536;HTU21D;9913;51.168;4.124;2023-08-21T11:27:15;26.02;80.71
19536;HTU21D;9913;51.168;4.124;2023-08-21T11:29:45;26.08;97.80
19536;HTU21D;9913;51.168;4.124;2023-08-21T11:32:17;25.76;102.62
19536;HTU21D;9913;51.168;4.124;2023-08-21T11:34:48;25.46;103.29
19536;HTU21D;9913;51.168;4.124;2023-08-21T11:37:18;25.61;93.02
19536;HTU21D;9913;51.168;4.124;2023-08-21T11:39:49;25.60;97.88
19536;HTU21D;9913;51.168;4.124;2023-08-21T11:42:20;25.63;98.19
19536;HTU21D;9913;51.168;4.124;2023-08-21T11:44:50;25.83;103.17
19536;HTU21D;9913;51.168;4.124;2023-08-21T11:47:21;25.18;109.75
19536;HTU21D;9913;51.168;4.124;2023-08-21T11:49:50;25.56;109.78
19536;HTU21D;9913;51.168;4.124;2023-08-21T11:52:20;25.51;109.03
19536;HTU21D;9913;51.168;4.124;2023-08-21T11:54:50;25.94;111.30
19536;HTU21D;9913;51.168;4.124;2023-08-21T11:57:19;25.97;108.02
19536;HTU21D;9913;51.168;4.124;2023-08-21T11:59:51;26.16;111.03
19536;HTU21D;9913;51.168;4.124;2023-08-21T12:02:23;26.17;107.83
19536;HTU21D;9913;51.168;4.124;2023-08-21T12:04:52;26.67;105.86
19536;HTU21D;9913;51.168;4.124;2023-08-21T12:07:21;26.26;107.12
19536;HTU21D;9913;51.168;4.124;2023-08-21T12:09:49;26.22;106.74
19536;HTU21D;9913;51.168;4.124;2023-08-21T12:12:18;25.97;107.30
19536;HTU21D;9913;51.168;4.124;2023-08-21T12:14:46;26.10;109.49
19536;HTU21D;9913;51.168;4.124;2023-08-21T12:17:15;26.24;111.60
19536;HTU21D;9913;51.168;4.124;2023-08-21T12:19:44;26.24;110.19
19536;HTU21D;9913;51.168;4.124;2023-08-21T12:22:13;26.41;110.35
19536;HTU21D;9913;51.168;4.124;2023-08-21T12:24:41;26.80;111.92
19536;HTU21D;9913;51.168;4.124;2023-08-21T12:27:09;26.39;107.58
19536;HTU21D;9913;51.168;4.124;2023-08-21T12:29:38;27.00;108.14
19536;HTU21D;9913;51.168;4.124;2023-08-21T12:32:06;26.94;106.40
19536;HTU21D;9913;51.168;4.124;2023-08-21T12:34:34;26.98;111.78
19536;HTU21D;9913;51.168;4.124;2023-08-21T12:37:04;26.81;104.71
19536;HTU21D;9913;51.168;4.124;2023-08-21T12:39:32;27.12;102.59
19536;HTU21D;9913;51.168;4.124;2023-08-21T12:42:01;27.67;106.66
19536;HTU21D;9913;51.168;4.124;2023-08-21T12:44:30;26.75;103.86
19536;HTU21D;9913;51.168;4.124;2023-08-21T12:46:59;27.08;108.69
19536;HTU21D;9913;51.168;4.124;2023-08-21T12:49:27;27.10;112.95
19536;HTU21D;9913;51.168;4.124;2023-08-21T12:51:56;27.02;102.88
19536;HTU21D;9913;51.168;4.124;2023-08-21T12:54:26;27.23;111.90
19536;HTU21D;9913;51.168;4.124;2023-08-21T12:56:54;27.59;98.29
19536;HTU21D;9913;51.168;4.124;2023-08-21T12:59:23;27.52;97.42
19536;HTU21D;9913;51.168;4.124;2023-08-21T13:01:52;27.46;107.44
19536;HTU21D;9913;51.168;4.124;2023-08-21T13:04:20;27.32;107.56
19536;HTU21D;9913;51.168;4.124;2023-08-21T13:06:49;27.09;99.32
19536;HTU21D;9913;51.168;4.124;2023-08-21T13:09:17;27.15;102.25
19536;HTU21D;9913;51.168;4.124;2023-08-21T13:11:47;27.54;107.96
19536;HTU21D;9913;51.168;4.124;2023-08-21T13:14:15;27.87;104.53
19536;HTU21D;9913;51.168;4.124;2023-08-21T13:16:43;27.84;108.31
19536;HTU21D;9913;51.168;4.124;2023-08-21T13:19:12;27.57;108.14
19536;HTU21D;9913;51.168;4.124;2023-08-21T13:21:40;26.86;109.20
19536;HTU21D;9913;51.168;4.124;2023-08-21T13:24:08;26.91;106.25
19536;HTU21D;9913;51.168;4.124;2023-08-21T13:26:37;27.30;110.54
19536;HTU21D;9913;51.168;4.124;2023-08-21T13:29:07;26.69;104.16
19536;HTU21D;9913;51.168;4.124;2023-08-21T13:31:35;26.43;110.61
19536;HTU21D;9913;51.168;4.124;2023-08-21T13:34:04;26.17;107.47
19536;HTU21D;9913;51.168;4.124;2023-08-21T13:36:32;25.78;112.79
19536;HTU21D;9913;51.168;4.124;2023-08-21T13:39:00;26.68;107.55
19536;HTU21D;9913;51.168;4.124;2023-08-21T13:41:33;27.32;109.03
19536;HTU21D;9913;51.168;4.124;2023-08-21T13:44:04;27.61;100.38
19536;HTU21D;9913;51.168;4.124;2023-08-21T13:46:38;27.80;107.74
19536;HTU21D;9913;51.168;4.124;2023-08-21T13:49:08;27.74;105.82
19536;HTU21D;9913;51.168;4.124;2023-08-21T13:51:38;27.22;104.42
19536;HTU21D;9913;51.168;4.124;2023-08-21T13:54:10;26.86;107.04
19536;HTU21D;9913;51.168;4.124;2023-08-21T13:56:41;26.20;109.10
19536;HTU21D;9913;51.168;4.124;2023-08-21T13:59:10;25.83;111.76
19536;HTU21D;9913;51.168;4.124;2023-08-21T14:01:40;25.44;110.04
19536;HTU21D;9913;51.168;4.124;2023-08-21T14:04:09;26.67;114.35
19536;HTU21D;9913;51.168;4.124;2023-08-21T14:06:38;27.64;107.39
19536;HTU21D;9913;51.168;4.124;2023-08-21T14:09:07;28.02;107.12
19536;HTU21D;9913;51.168;4.124;2023-08-21T14:11:36;28.12;102.51
19536;HTU21D;9913;51.168;4.124;2023-08-21T14:14:06;28.43;105.76
19536;HTU21D;9913;51.168;4.124;2023-08-21T14:16:37;28.28;108.57
19536;HTU21D;9913;51.168;4.124;2023-08-21T14:19:11;28.48;106.53
19536;HTU21D;9913;51.168;4.124;2023-08-21T14:21:43;28.40;106.08
19536;HTU21D;9913;51.168;4.124;2023-08-21T14:24:13;28.76;105.90
19536;HTU21D;9913;51.168;4.124;2023-08-21T14:26:42;28.52;109.08
19536;HTU21D;9913;51.168;4.124;2023-08-21T14:29:12;28.88;110.23
19536;HTU21D;9913;51.168;4.124;2023-08-21T14:31:42;29.30;105.28
19536;HTU21D;9913;51.168;4.124;2023-08-21T14:34:16;28.92;105.24
19536;HTU21D;9913;51.168;4.124;2023-08-21T14:36:45;28.40;108.88
19536;HTU21D;9913;51.168;4.124;2023-08-21T14:39:15;28.18;111.36
19536;HTU21D;9913;51.168;4.124;2023-08-21T14:41:45;28.43;107.00
19536;HTU21D;9913;51.168;4.124;2023-08-21T14:44:14;28.46;104.99
19536;HTU21D;9913;51.168;4.124;2023-08-21T14:46:42;29.04;106.38
19536;HTU21D;9913;51.168;4.124;2023-08-21T14:49:11;29.13;105.83
19536;HTU21D;9913;51.168;4.124;2023-08-21T14:51:42;29.49;107.23
19536;HTU21D;9913;51.168;4.124;2023-08-21T14:54:10;29.13;103.93
19536;HTU21D;9913;51.168;4.124;2023-08-21T14:56:39;29.23;103.56
19536;HTU21D;9913;51.168;4.124;2023-08-21T14:59:07;30.69;95.95
19536;HTU21D;9913;51.168;4.124;2023-08-21T15:01:38;29.58;101.73
19536;HTU21D;9913;51.168;4.124;2023-08-21T15:04:07;29.15;107.03
19536;HTU21D;9913;51.168;4.124;2023-08-21T15:06:38;29.91;100.77
19536;HTU21D;9913;51.168;4.124;2023-08-21T15:09:08;29.89;102.31
19536;HTU21D;9913;51.168;4.124;2023-08-21T15:11:36;29.47;99.86
19536;HTU21D;9913;51.168;4.124;2023-08-21T15:14:09;30.79;94.64
19536;HTU21D;9913;51.168;4.124;2023-08-21T15:16:38;29.04;102.25
19536;HTU21D;9913;51.168;4.124;2023-08-21T15:19:06;30.45;97.72
19536;HTU21D;9913;51.168;4.124;2023-08-21T15:21:35;28.90;100.81
19536;HTU21D;9913;51.168;4.124;2023-08-21T15:24:05;27.90;105.24
19536;HTU21D;9913;51.168;4.124;2023-08-21T15:26:35;27.34;105.47
19536;HTU21D;9913;51.168;4.124;2023-08-21T15:29:03;26.33;111.73
19536;HTU21D;9913;51.168;4.124;2023-08-21T15:31:32;27.51;106.27
19536;HTU21D;9913;51.168;4.124;2023-08-21T15:34:00;28.47;102.33
19536;HTU21D;9913;51.168;4.124;2023-08-21T15:36:32;28.93;101.17
19536;HTU21D;9913;51.168;4.124;2023-08-21T15:39:00;29.09;99.69
19536;HTU21D;9913;51.168;4.124;2023-08-21T15:41:29;29.38;100.59
19536;HTU21D;9913;51.168;4.124;2023-08-21T15:43:59;28.90;103.62